• Join FlightAware (Why Join?)
  • Login
  • US Flag 
04:03PM EDT


 

Airport Tracker/Info


-or-


 

Live Flight TrackerFlight Track Log ✈ N682RW ✈ 15-May-2013 ✈ KFTW - KMDW

Flight Track Log - Related Links

Times and Time Zones

All times are in EDT time to prevent confusion due to time zone crossing. See the N682RW flight status page for this flight to view local times or setup timezone preferences in your user account.

Time Position Orientation Groundspeed Altitude Reporting Facility
EDT Latitude Longitude Course Direction KTS MPH feet Rate Location/Type
10:15PM 32.8000 -97.3500 50° Northeast 161 185 1,800  Level Dallas / Fort Worth TRACON
10:17PM 32.8750 -97.2428 50° Northeast 308 354 7,500 3,060 Climbing Fort Worth Center
10:18PM 32.9333 -97.1611 50° Northeast 313 360 10,800 3,060 Climbing Fort Worth Center
10:19PM 32.9872 -97.0617 57° Northeast 346 398 13,700 2,700 Climbing Fort Worth Center
10:20PM 33.0433 -96.9550 58° Northeast 368 423 16,300 2,580 Climbing Fort Worth Center
10:21PM 33.0950 -96.8356 63° Northeast 391 450 18,900 2,520 Climbing Fort Worth Center
10:22PM 33.1406 -96.7236 64° Northeast 405 466 21,400 2,520 Climbing Fort Worth Center
10:23PM 33.2022 -96.5842 62° Northeast 419 482 24,000 2,100 Climbing Fort Worth Center
10:24PM 33.2597 -96.4569 62° Northeast 430 495 25,700 1,740 Climbing Fort Worth Center
10:25PM 33.3150 -96.3222 64° Northeast 438 504 27,500 1,620 Climbing Fort Worth Center
10:26PM 33.3703 -96.1897 63° Northeast 438 504 29,000 1,260 Climbing Fort Worth Center
10:27PM 33.4378 -96.0544 59° Northeast 455 524 30,100 1,200 Climbing Fort Worth Center
10:28PM 33.5178 -95.9336 52° Northeast 473 544 31,500 1,140 Climbing Fort Worth Center
10:29PM 33.6125 -95.8322 42° Northeast 450 518 32,400 840 Climbing Fort Worth Center
10:30PM 33.7219 -95.7403 35° Northeast 462 532 33,200 1,200 Climbing Fort Worth Center
10:31PM 33.8272 -95.6483 36° Northeast 468 539 34,800 900 Climbing Fort Worth Center
10:32PM 33.9322 -95.5561 36° Northeast 468 539 35,000 60 Climbing Fort Worth Center
10:33PM 34.0372 -95.4611 37° Northeast 468 539 35,000  Level Fort Worth Center
10:34PM 34.1461 -95.3633 37° Northeast 478 550 35,000  Level Fort Worth Center
10:35PM 34.2531 -95.2653 37° Northeast 478 550 35,000  Level Fort Worth Center
10:36PM 34.3600 -95.1694 36° Northeast 472 543 35,000  Level Fort Worth Center
10:37PM 34.4667 -95.0711 37° Northeast 477 549 35,000  Level Fort Worth Center
10:39PM 34.6814 -94.8753 37° Northeast 460 529 35,000  Level Memphis Center
10:40PM 34.7808 -94.7844 37° Northeast 460 529 35,000  Level Memphis Center
10:41PM 34.8906 -94.6839 37° Northeast 448 516 35,000  Level Memphis Center
10:42PM 34.9856 -94.5922 38° Northeast 456 525 35,000  Level Memphis Center
10:43PM 35.0850 -94.4933 39° Northeast 456 525 35,000  Level Memphis Center
10:44PM 35.1881 -94.3992 37° Northeast 456 525 35,000  Level Memphis Center
10:45PM 35.2850 -94.3047 38° Northeast 450 518 35,000  Level Memphis Center
10:46PM 35.3858 -94.2153 36° Northeast 450 518 35,000  Level Memphis Center
10:47PM 35.4847 -94.1153 39° Northeast 455 524 35,000  Level Memphis Center
10:48PM 35.5897 -94.0206 36° Northeast 455 524 35,000  Level Memphis Center
10:49PM 35.6928 -93.9228 38° Northeast 455 524 35,000  Level Memphis Center
10:50PM 35.7933 -93.8272 38° Northeast 455 524 35,000  Level Memphis Center
10:51PM 35.8961 -93.7292 38° Northeast 455 524 35,000  Level Memphis Center
10:52PM 35.9989 -93.6308 38° Northeast 455 524 35,000  Level Memphis Center
10:53PM 36.0994 -93.5344 38° Northeast 455 524 35,000  Level Memphis Center
10:54PM 36.1978 -93.4381 38° Northeast 449 517 35,000  Level Memphis Center
10:55PM 36.3003 -93.3417 37° Northeast 455 524 35,000  Level Memphis Center
10:58PM 36.5625 -93.0825 38° Northeast 465 535 35,000  Level Kansas City Center
10:59PM 36.6647 -92.9833 38° Northeast 466 536 35,000  Level Kansas City Center
11:00PM 36.7686 -92.8831 38° Northeast 468 539 35,000  Level Kansas City Center
11:01PM 36.8711 -92.7808 39° Northeast 470 541 35,000  Level Kansas City Center
11:02PM 36.9758 -92.6767 38° Northeast 474 545 35,000  Level Kansas City Center
11:03PM 37.0814 -92.5714 38° Northeast 479 551 35,000  Level Kansas City Center
11:04PM 37.1856 -92.4675 38° Northeast 480 552 35,000  Level Kansas City Center
11:05PM 37.3111 -92.3411 39° Northeast 481 554 35,000  Level Kansas City Center
11:06PM 37.4178 -92.2325 39° Northeast 489 563 35,000  Level Kansas City Center
11:07PM 37.5219 -92.1272 39° Northeast 486 559 35,000  Level Kansas City Center
11:08PM 37.6244 -92.0236 39° Northeast 479 551 35,000  Level Kansas City Center
11:09PM 37.7269 -91.9192 39° Northeast 477 549 35,000  Level Kansas City Center
11:10PM 37.8314 -91.8131 39° Northeast 482 555 35,000  Level Kansas City Center
11:11PM 37.9325 -91.7031 41° Northeast 483 556 35,000  Level Kansas City Center
11:12PM 38.0231 -91.5750 48° Northeast 488 562 35,000  Level Kansas City Center
11:13PM 38.1119 -91.4528 47° Northeast 478 550 35,000  Level Kansas City Center
11:14PM 38.2161 -91.3136 46° Northeast 475 547 35,000  Level Kansas City Center
11:15PM 38.3081 -91.1922 46° Northeast 476 548 35,000  Level Kansas City Center
11:16PM 38.3983 -91.0681 47° Northeast 478 550 35,000  Level Kansas City Center
11:17PM 38.4853 -90.9386 49° Northeast 481 554 35,000  Level Kansas City Center
11:18PM 38.5725 -90.8075 50° Northeast 482 555 35,000  Level Kansas City Center
11:19PM 38.6667 -90.6686 49° Northeast 487 560 35,000  Level Kansas City Center
11:20PM 38.7572 -90.5375 48° Northeast 491 565 35,000  Level Kansas City Center
11:21PM 38.8481 -90.4075 48° Northeast 490 564 35,000  Level Kansas City Center
11:22PM 38.9358 -90.2728 50° Northeast 491 565 35,000  Level Kansas City Center
11:23PM 39.0225 -90.1364 51° Northeast 493 567 35,000  Level Kansas City Center
11:24PM 39.1144 -90.0119 46° Northeast 492 566 35,000  Level Kansas City Center
11:25PM 39.2319 -89.9375 26° Northeast 475 547 35,000  Level Kansas City Center
11:26PM 39.3461 -89.8556 29° Northeast 471 542 35,000  Level Kansas City Center
11:27PM 39.4603 -89.7697 30° Northeast 473 544 35,000 -540 Level Kansas City Center
11:28PM 39.5736 -89.6853 30° Northeast 473 544 34,000 -1,380 Descending Kansas City Center
11:29PM 39.7103 -89.5814 30° Northeast 474 545 32,300 -1,740 Descending Kansas City Center
11:30PM 39.8314 -89.4933 29° Northeast 482 555 30,500 -1,860 Descending Kansas City Center
11:31PM 39.8761 -89.4606 29° Northeast 480 552 29,400 -1,680 Descending Chicago Center
11:32PM 39.9906 -89.3731 30° Northeast 479 551 27,900 -1,620 Descending Chicago Center
11:32PM 40.0608 -89.3203 30° Northeast 479 551 27,000 -1,620 Descending Kansas City Center
11:33PM 40.1742 -89.2339 30° Northeast 476 548 25,500 -1,500 Descending Kansas City Center
11:34PM 40.2414 -89.1819 31° Northeast 479 551 24,700 -1,680 Descending Chicago Center
11:35PM 40.3544 -89.0958 30° Northeast 473 544 22,900 -1,920 Descending Chicago Center
11:36PM 40.4564 -89.0175 30° Northeast 434 499 20,800 -1,920 Descending Chicago Center
11:37PM 40.5497 -88.9447 31° Northeast 397 457 19,100 -1,980 Descending Chicago Center
11:38PM 40.6383 -88.8761 30° Northeast 375 432 16,800 -1,980 Descending Chicago Center
11:39PM 40.7186 -88.8131 31° Northeast 359 413 15,100 -1,740 Descending Chicago Center
11:40PM 40.8025 -88.7503 30° Northeast 349 402 13,400 -1,320 Descending Chicago Center
11:41PM 40.9047 -88.6836 26° Northeast 343 395 12,500 -1,260 Descending Chicago Center
11:42PM 40.9919 -88.6369 22° Northeast 340 391 10,900 -1,380 Descending Chicago Center
11:43PM 41.0703 -88.5922 23° Northeast 312 359 9,700 -1,380 Descending Chicago Center
11:44PM 41.1433 -88.5489 24° Northeast 295 339 8,200 -1,380 Descending Chicago Center
11:45PM 41.2156 -88.5078 23° Northeast 283 326 6,900 -1,140 Descending Chicago Center
11:46PM 41.2872 -88.4656 24° Northeast 282 325 6,000 -480 Descending Chicago Center
11:47PM 41.3325 -88.3792 55° Northeast 284 327 6,000  Level Chicago Center
11:48PM 41.3758 -88.2917 57° Northeast 286 329 6,000  Level Chicago Center
11:49PM 41.4228 -88.2053 54° Northeast 286 329 6,000 -660 Level Chicago Center
11:50PM 41.4808 -88.1328 43° Northeast 282 325 4,700 -1,020 Descending Chicago Center
11:51PM 41.5383 -88.0628 42° Northeast 278 320 4,000 -360 Descending Chicago Center
11:52PM 41.5861 -88.0044 42° Northeast 242 278 4,000  Level Chicago Center
11:53PM 41.6325 -87.9453 44° Northeast 234 269 4,000 -300 Level Chicago Center
11:54PM 41.6756 -87.8908 43° Northeast 226 260 3,500 -840 Descending Chicago Center
11:55PM 41.7000 -87.8500 51° Northeast 181 208 2,600 -1,020 Descending Chicago TRACON
11:56PM 41.7333 -87.8167 37° Northeast 156 180 1,800 -780 Descending Chicago TRACON
11:57PM 41.7667 -87.7833 37° Northeast 139 160 1,100 -720 Descending Chicago TRACON
11:59PM 41.7833 -87.7500 42° Northeast  Level FlightAware Approximate